Disclaimer

Please do not use the information listed here in-flight or in-navigation, as they are not provided to us by the airports but are provided by volunteers, so they might be outdated.

Search


Regions


Airport information page

Radio informations:
METEO - 127.2 MHz
TRANSIT - 131.8 MHz
TAXIING - 121.8 MHz

Airport informations:
Latitude: 56° 22' 14.00" N
Longitude: 101° 41' 53.99" E
Elevation: 1610 feet - 491 meters
Operating hours: 24 hour operations
Operating agency: Civil government, landing fees and diplomatic clearance may be required
Timezone: UTC+8(+9DT) - Last Sunday in March to last Sunday in October
Fuel: N/A

Runway information:
12/30 - 10368 x 197 feet< - >3160 x 60 meters

Recent METARs:
UIBB 182330Z 24003MPS 9999 SCT013CB M19/M22 Q1020 R30/490345 NOSIG RMK QFE721/0962
UIBB 190000Z 25004MPS 9999 SCT013CB M19/M21 Q1020 R30/490345 NOSIG RMK QFE722/0962
UIBB 190030Z 25004MPS 9999 SCT020CB M19/M21 Q1020 R30/490345 NOSIG RMK QFE722/0962

Airport on the map: